Time;durP1;ratioP1;P1;durP2;ratioP2;P2;SDS_P1;SDS_P2;PMS_P1;PMS_P2;Temp;Humidity;BMP_temperature;BMP_pressure;BME280_temperature;BME280_humidity;BME280_pressure;Samples;Min_cycle;Max_cycle;Signal;HPM_P1;HPM_P2
2022/05/25 00:02:09;;;;;;;3.92;3.33;;;;;;;18.23;65.68;99353.59;4362443;32;34672;-71
2022/05/25 00:04:37;;;;;;;4.70;3.47;;;;;;;18.57;64.45;99346.75;4361666;32;34261;-72
2022/05/25 00:07:05;;;;;;;4.53;3.42;;;;;;;18.21;65.76;99358.59;4362426;32;33773;-70
2022/05/25 00:09:32;;;;;;;5.12;3.22;;;;;;;17.99;66.41;99359.38;4348865;32;33193;-72
2022/05/25 00:12:01;;;;;;;4.80;3.50;;;;;;;18.06;66.50;99356.19;4362721;32;34728;-71
2022/05/25 00:14:29;;;;;;;4.72;2.95;;;;;;;17.98;66.79;99346.75;4362010;32;34363;-72
2022/05/25 00:16:56;;;;;;;5.40;3.33;;;;;;;17.65;68.14;99334.28;4362197;32;34124;-71
2022/05/25 00:22:11;;;;;;;4.95;3.42;;;;;;;17.93;66.98;99333.13;4358264;32;33937;-72
2022/05/25 00:24:38;;;;;;;5.32;3.60;;;;;;;18.32;66.24;99328.16;4361409;32;33915;-71
2022/05/25 00:27:06;;;;;;;5.28;3.50;;;;;;;18.58;64.85;99331.91;4362182;32;33991;-72
2022/05/25 00:29:34;;;;;;;4.57;3.42;;;;;;;17.63;68.57;99338.13;4362384;32;34108;-71
2022/05/25 00:32:03;;;;;;;4.50;3.47;;;;;;;17.63;67.99;99335.38;4362171;32;34877;-73
2022/05/25 00:34:31;;;;;;;5.22;3.80;;;;;;;17.95;67.17;99339.13;4361531;32;35080;-74
2022/05/25 00:36:58;;;;;;;4.28;3.28;;;;;;;18.15;66.27;99337.87;4362032;32;33889;-72
2022/05/25 00:39:26;;;;;;;5.25;3.65;;;;;;;17.85;67.39;99341.28;4361769;32;33350;-71
2022/05/25 00:41:55;;;;;;;4.60;3.40;;;;;;;18.20;65.87;99340.47;4361971;32;34447;-71
2022/05/25 00:44:23;;;;;;;6.03;3.45;;;;;;;18.73;64.52;99349.97;4361680;32;34947;-72
2022/05/25 00:46:51;;;;;;;4.47;3.58;;;;;;;18.76;64.82;99343.03;4348648;32;33766;-71
2022/05/25 00:49:25;;;;;;;5.47;3.70;;;;;;;18.54;65.89;99349.34;4361542;32;33082;-71
2022/05/25 00:51:56;;;;;;;4.70;3.58;;;;;;;18.45;65.26;99347.31;4342785;32;33963;-71
2022/05/25 00:54:37;;;;;;;4.43;3.47;;;;;;;18.83;64.11;99344.25;4348392;32;34352;-72
2022/05/25 00:57:08;;;;;;;5.20;3.40;;;;;;;18.03;66.54;99343.06;4348672;32;34489;-71
2022/05/25 01:00:08;;;;;;;5.05;3.40;;;;;;;18.48;65.31;99347.84;4361775;32;33588;-71
2022/05/25 01:02:40;;;;;;;4.68;3.45;;;;;;;18.53;66.37;99350.44;4361438;32;33939;-71
2022/05/25 01:05:09;;;;;;;4.95;3.35;;;;;;;18.20;66.18;99343.22;4362103;32;33853;-73
2022/05/25 01:08:07;;;;;;;3.90;3.05;;;;;;;17.87;66.49;99353.56;4361815;32;33686;-72
2022/05/25 01:10:59;;;;;;;4.57;3.30;;;;;;;18.26;66.20;99365.09;4361652;32;33580;-71
2022/05/25 01:13:42;;;;;;;4.40;3.33;;;;;;;18.54;65.53;99363.06;4361634;32;33945;-72
2022/05/25 01:16:26;;;;;;;4.93;3.50;;;;;;;18.29;65.70;99353.47;4361702;32;35080;-72
2022/05/25 01:18:55;;;;;;;;;;;;;;;17.67;67.99;99352.03;4348570;32;33873;-71
2022/05/25 01:21:23;;;;;;;4.07;3.03;;;;;;;18.54;64.13;99341.91;4348423;32;33767;-72
2022/05/25 01:24:19;;;;;;;4.50;3.47;;;;;;;18.14;65.40;99358.22;4361511;32;33941;-71
2022/05/25 01:27:06;;;;;;;5.00;3.22;;;;;;;18.31;64.85;99356.72;4361757;32;34846;-72
2022/05/25 01:29:47;;;;;;;4.35;3.37;;;;;;;18.09;65.76;99361.06;4346987;33;34050;-71
2022/05/25 01:32:28;;;;;;;4.65;3.60;;;;;;;18.22;64.89;99365.69;4338868;32;34155;-70
2022/05/25 01:35:09;;;;;;;4.87;3.30;;;;;;;18.28;64.71;99365.59;4348458;32;34658;-71
2022/05/25 01:37:44;;;;;;;4.18;3.12;;;;;;;18.44;63.91;99364.12;4361803;32;34283;-71
2022/05/25 01:40:25;;;;;;;4.50;3.05;;;;;;;17.77;66.16;99360.03;4348417;32;34435;-70
2022/05/25 01:43:16;;;;;;;3.92;3.08;;;;;;;17.77;65.73;99362.78;4348146;32;33267;-71
2022/05/25 01:45:48;;;;;;;4.05;2.95;;;;;;;17.93;65.46;99359.78;4348502;32;34052;-72
2022/05/25 01:48:18;;;;;;;5.62;3.30;;;;;;;18.34;63.91;99370.66;4347513;32;33210;-71
2022/05/25 01:50:49;;;;;;;3.47;2.80;;;;;;;18.62;63.08;99370.56;4348072;32;33950;-70
2022/05/25 01:53:19;;;;;;;4.57;2.87;;;;;;;18.36;63.83;99364.88;4347625;32;34355;-71
2022/05/25 01:55:50;;;;;;;4.45;2.80;;;;;;;18.29;64.52;99357.03;4348379;32;33997;-71
2022/05/25 01:58:19;;;;;;;3.70;3.05;;;;;;;18.06;63.63;99347.16;4348110;32;34973;-71
2022/05/25 02:00:51;;;;;;;3.35;2.80;;;;;;;17.92;64.46;99350.72;4348149;32;34772;-72
2022/05/25 02:06:30;;;;;;;5.22;2.87;;;;;;;17.30;66.57;99358.50;4361666;32;34073;-71
2022/05/25 02:09:22;;;;;;;4.03;2.87;;;;;;;17.28;66.62;99363.50;4361565;32;33939;-71
2022/05/25 02:12:16;;;;;;;6.03;3.10;;;;;;;17.14;66.38;99356.06;4348318;32;34086;-72
2022/05/25 02:15:05;;;;;;;4.40;3.12;;;;;;;17.41;65.97;99349.81;4361312;32;34158;-75
2022/05/25 02:17:48;;;;;;;3.53;2.67;;;;;;;17.71;64.26;99357.72;4361168;32;33678;-72
2022/05/25 02:20:34;;;;;;;3.97;2.95;;;;;;;17.32;66.05;99356.28;4361708;32;34097;-72
2022/05/25 02:23:15;;;;;;;3.75;3.10;;;;;;;17.43;65.80;99355.00;4361092;32;33863;-70
2022/05/25 02:25:45;;;;;;;3.87;2.90;;;;;;;17.11;66.95;99353.94;4361528;32;34363;-70
2022/05/25 02:28:18;;;;;;;3.85;2.92;;;;;;;16.97;67.37;99356.62;4348070;32;33979;-71
2022/05/25 02:30:49;;;;;;;4.72;3.20;;;;;;;17.67;64.62;99356.69;4347475;32;34985;-73
2022/05/25 02:33:25;;;;;;;4.47;3.08;;;;;;;17.37;65.25;99340.56;4347489;32;34429;-71
2022/05/25 02:35:52;;;;;;;5.85;3.03;;;;;;;17.04;67.01;99342.56;4348183;32;33404;-71
2022/05/25 02:38:20;;;;;;;4.45;3.05;;;;;;;17.48;65.31;99346.66;4348034;32;33871;-71
2022/05/25 02:40:48;;;;;;;4.53;3.08;;;;;;;17.24;66.12;99344.09;4347642;32;34171;-72
2022/05/25 02:43:16;;;;;;;4.95;3.17;;;;;;;16.97;67.05;99339.38;4360754;32;33580;-71
2022/05/25 02:45:43;;;;;;;6.53;3.22;;;;;;;17.31;66.14;99339.03;4360549;32;33463;-71
2022/05/25 02:48:11;;;;;;;4.07;3.00;;;;;;;17.40;65.68;99344.63;4347683;32;33968;-72
2022/05/25 02:50:39;;;;;;;5.53;2.92;;;;;;;17.12;67.07;99350.06;4361165;32;34135;-72
2022/05/25 02:53:06;;;;;;;4.35;2.85;;;;;;;17.34;66.17;99335.69;4360791;32;34103;-71
2022/05/25 02:55:34;;;;;;;4.57;2.85;;;;;;;16.70;68.66;99340.09;4361115;32;33273;-70
2022/05/25 02:58:02;;;;;;;4.43;3.58;;;;;;;16.78;68.61;99348.44;4360868;32;34002;-71
2022/05/25 03:00:30;;;;;;;4.55;3.40;;;;;;;16.65;68.94;99349.22;4360521;32;34761;-72
2022/05/25 03:02:57;;;;;;;4.50;3.08;;;;;;;16.84;68.64;99353.87;4362506;32;33776;-70
2022/05/25 03:05:25;;;;;;;4.05;3.17;;;;;;;17.19;67.04;99352.41;4362914;32;33498;-69
2022/05/25 03:07:53;;;;;;;4.20;3.40;;;;;;;16.92;67.93;99347.69;4362851;32;34037;-71
2022/05/25 03:10:20;;;;;;;4.90;3.12;;;;;;;16.85;68.51;99341.81;4362845;32;34660;-68
2022/05/25 03:12:48;;;;;;;5.28;3.35;;;;;;;16.63;68.87;99351.44;4362461;32;34048;-71
2022/05/25 03:15:20;;;;;;;4.78;3.40;;;;;;;16.70;68.55;99346.37;4362583;32;33855;-70
2022/05/25 03:17:48;;;;;;;4.37;3.10;;;;;;;16.65;69.54;99357.44;4362742;32;33914;-69
2022/05/25 03:20:15;;;;;;;4.87;2.97;;;;;;;16.96;68.14;99351.47;4362717;32;35157;-71
2022/05/25 03:22:48;;;;;;;4.40;3.40;;;;;;;17.11;68.07;99353.94;4349346;32;34572;-70
2022/05/25 03:25:15;;;;;;;4.07;3.22;;;;;;;17.16;67.76;99351.09;4349373;32;33316;-70
2022/05/25 03:27:44;;;;;;;4.68;2.87;;;;;;;17.32;66.95;99348.91;4362659;32;34849;-70
2022/05/25 03:30:14;;;;;;;4.20;3.22;;;;;;;17.48;65.73;99348.59;4362294;32;34978;-70
2022/05/25 03:32:41;;;;;;;4.47;3.20;;;;;;;17.07;67.40;99344.69;4362076;32;33835;-70
2022/05/25 03:35:10;;;;;;;4.40;3.20;;;;;;;16.95;67.68;99349.81;4362549;32;34296;-70
2022/05/25 03:37:38;;;;;;;4.18;3.05;;;;;;;17.25;66.76;99351.19;4361605;32;34738;-69
2022/05/25 03:40:11;;;;;;;3.72;3.20;;;;;;;16.76;68.06;99356.16;4362485;32;34192;-70
2022/05/25 03:42:40;;;;;;;4.40;3.20;;;;;;;17.38;65.74;99358.63;4361746;32;34735;-70
2022/05/25 03:45:08;;;;;;;3.70;3.00;;;;;;;16.81;68.04;99368.97;4362400;32;34211;-69
2022/05/25 03:47:36;;;;;;;3.40;2.90;;;;;;;16.61;68.55;99379.12;4362436;32;34407;-70
2022/05/25 03:50:04;;;;;;;3.97;3.00;;;;;;;16.98;67.60;99377.44;4362506;32;34228;-70
2022/05/25 03:52:32;;;;;;;4.60;3.22;;;;;;;17.39;65.74;99371.25;4361942;32;34763;-70
2022/05/25 03:54:59;;;;;;;3.87;2.90;;;;;;;17.31;65.77;99366.44;4362595;32;34165;-70
2022/05/25 03:57:27;;;;;;;6.50;3.25;;;;;;;17.51;65.06;99378.94;4362217;32;33562;-69
2022/05/25 03:59:55;;;;;;;5.03;3.00;;;;;;;17.34;66.10;99376.81;4362522;32;34256;-73
2022/05/25 04:02:22;;;;;;;5.18;2.92;;;;;;;17.43;65.45;99394.19;4349036;32;33856;-71
2022/05/25 04:05:07;;;;;;;4.00;2.97;;;;;;;17.58;64.98;99389.50;4362275;32;33205;-75
2022/05/25 04:07:45;;;;;;;4.55;3.10;;;;;;;17.43;64.80;99394.19;4359554;32;34812;-69
2022/05/25 04:10:16;;;;;;;3.62;2.72;;;;;;;18.35;63.29;99387.94;4362661;32;34273;-69
2022/05/25 04:12:44;;;;;;;4.00;2.97;;;;;;;19.02;60.83;99389.94;4348403;32;34714;-71
2022/05/25 04:15:14;;;;;;;3.70;2.55;;;;;;;18.60;61.13;99395.59;4348916;32;33501;-70
2022/05/25 04:17:42;;;;;;;4.07;2.55;;;;;;;18.13;61.86;99391.47;4349157;32;34074;-68
2022/05/25 04:20:10;;;;;;;3.70;2.60;;;;;;;17.87;62.96;99391.19;4362327;32;34329;-70
2022/05/25 04:22:39;;;;;;;4.28;2.95;;;;;;;17.29;64.81;99396.09;4347102;33;33852;-69
2022/05/25 04:25:10;;;;;;;3.10;2.72;;;;;;;18.15;62.27;99401.00;4347835;33;33483;-69
2022/05/25 04:27:39;;;;;;;3.10;2.40;;;;;;;18.02;62.68;99405.41;4348010;33;33914;-69
2022/05/25 04:30:09;;;;;;;2.92;2.50;;;;;;;17.97;62.75;99422.00;4349709;32;34052;-70
2022/05/25 04:32:37;;;;;;;3.90;2.95;;;;;;;17.55;63.87;99409.34;4362226;32;34611;-68
2022/05/25 04:35:05;;;;;;;4.37;3.10;;;;;;;17.35;64.32;99411.34;4359229;32;33039;-71
2022/05/25 04:40:21;;;;;;;3.60;2.85;;;;;;;17.46;63.61;99400.19;4361967;32;34088;-68
2022/05/25 04:42:50;;;;;;;3.70;2.80;;;;;;;17.45;63.69;99395.81;4348401;32;34645;-75
2022/05/25 04:45:18;;;;;;;4.35;3.03;;;;;;;17.25;64.57;99399.75;4348634;32;34187;-79
2022/05/25 04:47:46;;;;;;;4.07;2.60;;;;;;;17.44;63.28;99392.25;4348174;32;34749;-73
2022/05/25 04:50:19;;;;;;;4.05;2.92;;;;;;;17.69;62.98;99406.59;4361723;32;33699;-70
2022/05/25 04:52:46;;;;;;;3.70;2.60;;;;;;;18.02;62.58;99401.84;4348157;32;33883;-70
2022/05/25 04:58:02;;;;;;;3.75;2.55;;;;;;;17.66;63.85;99410.75;4360282;32;33254;-74
2022/05/25 05:00:29;;;;;;;3.60;2.70;;;;;;;17.99;62.17;99407.94;4362113;32;34967;-76
2022/05/25 05:02:57;;;;;;;3.65;2.70;;;;;;;17.75;63.54;99422.69;4360978;32;33860;-75
2022/05/25 05:05:25;;;;;;;4.05;3.08;;;;;;;18.01;63.11;99422.16;4361867;32;33101;-73
2022/05/25 05:07:52;;;;;;;4.80;2.95;;;;;;;17.43;65.51;99420.81;4362241;32;33331;-74
2022/05/25 05:10:20;;;;;;;3.85;2.87;;;;;;;17.58;64.66;99414.22;4362036;32;34618;-70
2022/05/25 05:12:47;;;;;;;4.53;2.92;;;;;;;17.81;64.38;99431.59;4359834;32;33739;-71
2022/05/25 05:15:15;;;;;;;6.18;3.05;;;;;;;18.22;63.58;99428.06;4361507;32;33440;-68
2022/05/25 05:17:42;;;;;;;3.78;2.97;;;;;;;18.39;62.80;99439.22;4360779;32;33970;-68
2022/05/25 05:20:12;;;;;;;4.12;2.92;;;;;;;18.29;62.29;99428.44;4361563;32;34186;-70
2022/05/25 05:22:39;;;;;;;4.65;2.80;;;;;;;18.27;62.64;99435.38;4361326;32;34166;-70
2022/05/25 05:25:07;;;;;;;4.45;3.17;;;;;;;18.26;63.67;99429.06;4361169;32;34155;-67
2022/05/25 05:27:35;;;;;;;4.12;3.25;;;;;;;17.77;64.29;99436.06;4348381;32;34651;-67
2022/05/25 05:30:05;;;;;;;3.28;2.70;;;;;;;18.06;63.43;99440.50;4361669;32;34204;-71
2022/05/25 05:32:35;;;;;;;4.10;3.08;;;;;;;18.29;63.24;99446.84;4360663;32;34127;-69
2022/05/25 05:35:03;;;;;;;4.43;3.22;;;;;;;18.32;63.91;99443.50;4348083;32;34271;-70
2022/05/25 05:37:37;;;;;;;4.30;3.33;;;;;;;18.82;61.77;99457.25;4361653;32;34781;-68
2022/05/25 05:40:07;;;;;;;5.37;3.28;;;;;;;18.65;62.26;99455.94;4361689;32;35000;-71
2022/05/25 05:42:38;;;;;;;4.07;2.97;;;;;;;18.63;62.45;99454.63;4361459;32;34055;-69
2022/05/25 05:45:10;;;;;;;5.03;3.17;;;;;;;18.43;63.42;99458.63;4348440;32;33402;-73
2022/05/25 05:47:44;;;;;;;4.18;3.00;;;;;;;18.39;62.89;99463.12;4360420;32;33854;-70
2022/05/25 05:50:12;;;;;;;;;;;;;;;18.78;62.31;99469.97;4361900;32;35066;-71
2022/05/25 05:52:40;;;;;;;7.65;3.80;;;;;;;18.78;61.94;99465.28;4361172;32;34191;-70
2022/05/25 05:55:07;;;;;;;3.87;2.83;;;;;;;18.59;63.73;99467.34;4360529;32;34466;-71
2022/05/25 05:57:37;;;;;;;5.70;3.20;;;;;;;19.42;60.38;99476.13;4361535;32;34959;-72
2022/05/25 06:00:06;;;;;;;4.12;2.97;;;;;;;19.09;60.63;99477.50;4347430;32;33799;-70
2022/05/25 06:02:39;;;;;;;;;;;;;;;19.38;59.53;99488.06;4348232;32;33844;-70
2022/05/25 06:05:07;;;;;;;6.22;2.95;;;;;;;18.87;62.01;99481.84;4361479;32;33377;-69
2022/05/25 06:07:34;;;;;;;5.43;3.22;;;;;;;19.08;60.50;99475.87;4361706;32;34736;-71
2022/05/25 06:10:03;;;;;;;3.95;2.85;;;;;;;19.36;59.67;99473.81;4348528;32;34359;-77
2022/05/25 06:12:32;;;;;;;4.60;3.20;;;;;;;18.86;61.11;99469.25;4361675;32;33810;-66
2022/05/25 06:19:25;;;;;;;4.87;2.83;;;;;;;19.03;60.94;99472.12;4361560;32;33211;-70
2022/05/25 06:20:34;;;;;;;6.72;3.10;;;;;;;19.67;58.96;99471.91;4361681;32;34270;-76
2022/05/25 06:23:02;;;;;;;5.07;3.35;;;;;;;19.99;58.29;99480.16;4348073;32;33912;-73
2022/05/25 06:25:30;;;;;;;4.82;2.83;;;;;;;20.43;58.11;99486.59;4361948;32;33766;-75
2022/05/25 06:27:57;;;;;;;4.70;2.72;;;;;;;20.43;56.55;99490.19;4361741;32;34405;-72
2022/05/25 06:30:25;;;;;;;4.25;2.80;;;;;;;20.37;56.82;99487.91;4361894;32;34251;-73
2022/05/25 06:32:53;;;;;;;4.20;3.00;;;;;;;20.95;55.54;99497.72;4360351;32;34893;-74
2022/05/25 06:35:20;;;;;;;3.90;3.20;;;;;;;20.77;56.33;99488.63;4361458;32;33878;-79
2022/05/25 06:37:48;;;;;;;4.00;2.85;;;;;;;20.85;55.68;99485.06;4361437;32;34409;-70
2022/05/25 06:40:16;;;;;;;4.47;2.87;;;;;;;21.20;55.41;99475.97;4361702;32;34240;-69
2022/05/25 06:42:44;;;;;;;3.50;2.78;;;;;;;22.03;52.61;99474.75;4360808;32;34895;-73
2022/05/25 06:45:12;;;;;;;4.20;2.78;;;;;;;22.31;50.97;99473.22;4361690;32;34230;-70
2022/05/25 06:47:39;;;;;;;4.53;2.90;;;;;;;21.83;52.71;99477.13;4360903;32;35044;-86
2022/05/25 06:50:07;;;;;;;3.92;2.60;;;;;;;22.36;51.31;99468.63;4361342;32;34031;-67
2022/05/25 06:52:35;;;;;;;3.25;2.55;;;;;;;22.47;50.61;99480.91;4361452;32;33766;-77
2022/05/25 06:55:04;;;;;;;3.53;2.78;;;;;;;22.86;48.99;99479.66;4361184;32;33889;-76
2022/05/25 06:57:31;;;;;;;3.35;2.50;;;;;;;23.21;48.37;99484.09;4347742;32;33933;-71
2022/05/25 06:59:59;;;;;;;4.75;2.65;;;;;;;23.21;48.95;99478.56;4359723;32;33962;-78
2022/05/25 07:02:28;;;;;;;3.25;2.47;;;;;;;24.38;45.57;99494.81;4358010;32;33763;-69
2022/05/25 07:04:55;;;;;;;3.75;2.60;;;;;;;23.92;47.10;99494.12;4360780;32;33491;-71
2022/05/25 07:07:24;;;;;;;2.78;2.25;;;;;;;24.83;44.71;99504.16;4360943;32;34108;-71
2022/05/25 07:09:51;;;;;;;3.50;2.50;;;;;;;25.61;43.59;99504.81;4360798;32;34281;-72
2022/05/25 07:12:20;;;;;;;3.85;2.28;;;;;;;24.75;44.71;99501.19;4345359;32;35152;-71
2022/05/25 07:14:48;;;;;;;3.75;2.45;;;;;;;25.67;44.30;99503.38;4360244;32;34331;-71
2022/05/25 07:17:16;;;;;;;3.80;2.85;;;;;;;26.10;41.89;99485.06;4360081;32;33862;-71
2022/05/25 07:19:43;;;;;;;5.20;2.75;;;;;;;25.71;42.88;99487.62;4360552;32;34195;-70
2022/05/25 07:22:12;;;;;;;3.37;2.70;;;;;;;25.67;44.08;99492.28;4360541;32;33580;-69
2022/05/25 07:24:46;;;;;;;4.93;2.90;;;;;;;25.68;43.10;99496.66;4347591;32;33164;-68
2022/05/25 07:27:14;;;;;;;3.53;2.58;;;;;;;25.58;43.67;99489.66;4359524;32;33849;-69
2022/05/25 07:29:42;;;;;;;4.43;2.85;;;;;;;25.90;43.78;99503.63;4360141;32;35118;-73
2022/05/25 07:32:12;;;;;;;4.20;2.92;;;;;;;25.79;44.14;99498.56;4360072;32;34031;-70
2022/05/25 07:34:50;;;;;;;3.53;2.83;;;;;;;24.98;45.96;99495.09;4360550;32;34140;-71
2022/05/25 07:37:21;;;;;;;4.75;2.65;;;;;;;25.12;45.66;99494.72;4347226;32;33692;-69
2022/05/25 07:39:56;;;;;;;4.37;3.00;;;;;;;24.36;47.49;99492.41;4360508;32;33787;-68
2022/05/25 07:42:25;;;;;;;4.35;3.00;;;;;;;23.88;49.61;99485.69;4346702;32;34909;-68
2022/05/25 07:44:58;;;;;;;4.45;2.95;;;;;;;24.03;49.27;99494.47;4345899;32;34039;-67
2022/05/25 07:47:30;;;;;;;4.45;3.17;;;;;;;24.29;49.19;99489.41;4360737;32;34867;-68
2022/05/25 07:49:58;;;;;;;4.90;3.33;;;;;;;24.46;47.62;99498.66;4362466;32;33988;-68
2022/05/25 07:52:27;;;;;;;4.95;3.58;;;;;;;24.27;48.66;99490.91;4361590;32;34452;-68
2022/05/25 07:54:56;;;;;;;5.00;3.70;;;;;;;24.56;49.35;99492.66;4344083;33;33482;-67
2022/05/25 07:57:24;;;;;;;4.40;3.12;;;;;;;24.69;47.82;99491.47;4334424;33;34682;-67
2022/05/25 07:59:51;;;;;;;8.35;3.12;;;;;;;24.62;48.19;99488.50;4362971;32;34369;-68
2022/05/25 08:08:00;;;;;;;6.28;3.42;;;;;;;23.99;50.78;99499.91;4351556;32;34404;-69
2022/05/25 08:10:28;;;;;;;6.18;3.87;;;;;;;24.45;49.08;99513.66;4349466;32;34276;-69
2022/05/25 08:12:57;;;;;;;4.85;3.53;;;;;;;24.85;48.11;99510.97;4362033;32;33524;-67
2022/05/25 08:15:26;;;;;;;5.60;4.00;;;;;;;24.56;47.56;99503.75;4362757;32;34241;-68
2022/05/25 08:17:54;;;;;;;5.70;3.58;;;;;;;23.90;49.22;99494.47;4362821;32;34026;-68
2022/05/25 08:20:22;;;;;;;5.18;3.85;;;;;;;23.98;52.41;99497.50;4362800;32;34376;-69
2022/05/25 08:22:50;;;;;;;4.93;3.85;;;;;;;23.45;52.05;99486.94;4360437;32;33985;-67
2022/05/25 08:25:19;;;;;;;4.57;3.55;;;;;;;23.81;51.08;99493.78;4362418;32;33636;-66
2022/05/25 08:27:48;;;;;;;5.05;3.50;;;;;;;24.46;50.75;99495.88;4358689;32;34428;-68
2022/05/25 08:30:18;;;;;;;6.20;3.90;;;;;;;24.56;49.10;99493.47;4358164;32;32987;-67
2022/05/25 08:32:47;;;;;;;5.72;3.83;;;;;;;24.32;50.40;99485.94;4361788;32;34752;-66
2022/05/25 08:35:15;;;;;;;5.87;4.10;;;;;;;25.11;48.52;99488.34;4359187;32;33943;-66
2022/05/25 08:37:43;;;;;;;7.90;4.25;;;;;;;24.86;49.10;99497.91;4361453;32;33597;-67
2022/05/25 08:40:13;;;;;;;5.78;3.75;;;;;;;25.07;48.38;99494.94;4361805;32;34679;-66
2022/05/25 08:43:08;;;;;;;10.93;4.22;;;;;;;25.04;48.67;99487.34;4361207;32;34597;-67
2022/05/25 08:45:45;;;;;;;7.15;4.12;;;;;;;25.53;47.13;99496.28;4348424;32;34361;-67
2022/05/25 08:48:14;;;;;;;6.10;4.40;;;;;;;25.11;48.73;99495.84;4348661;32;34683;-68
2022/05/25 08:50:43;;;;;;;7.00;4.12;;;;;;;25.12;49.01;99506.63;4361881;32;33560;-66
2022/05/25 08:53:12;;;;;;;6.15;3.97;;;;;;;25.01;50.22;99504.69;4361108;32;34005;-66
2022/05/25 08:55:51;;;;;;;6.30;4.28;;;;;;;24.48;53.87;99494.38;4362085;32;34575;-66
2022/05/25 08:58:19;;;;;;;5.60;4.60;;;;;;;25.67;47.91;99493.06;4357032;32;34187;-66
2022/05/25 09:00:48;;;;;;;4.87;3.80;;;;;;;24.97;49.23;99499.03;4347895;32;32938;-68
2022/05/25 09:03:41;;;;;;;7.65;4.10;;;;;;;25.43;48.55;99493.22;4347444;32;34002;-67
2022/05/25 09:06:21;;;;;;;6.60;4.50;;;;;;;25.83;47.51;99484.75;4362038;32;33492;-67
2022/05/25 09:09:03;;;;;;;5.40;4.28;;;;;;;25.67;47.02;99493.06;4348562;32;34601;-67
2022/05/25 09:11:43;;;;;;;5.37;3.97;;;;;;;25.45;48.29;99491.69;4360176;32;33711;-66
2022/05/25 09:14:32;;;;;;;6.97;4.18;;;;;;;25.16;49.29;99485.31;4347810;32;34736;-66
2022/05/25 09:17:05;;;;;;;4.70;3.90;;;;;;;24.24;52.37;99483.28;4362116;32;33494;-67
2022/05/25 09:19:36;;;;;;;4.63;3.80;;;;;;;24.81;50.06;99493.41;4361411;32;34790;-67
2022/05/25 09:22:08;;;;;;;5.87;4.30;;;;;;;25.32;51.36;99488.16;4362017;32;34075;-66
2022/05/25 09:24:36;;;;;;;5.45;3.58;;;;;;;25.95;47.79;99490.25;4361820;32;34229;-67
2022/05/25 09:27:06;;;;;;;5.95;4.55;;;;;;;26.29;47.23;99501.00;4348175;32;33535;-68
2022/05/25 09:29:34;;;;;;;5.87;4.60;;;;;;;25.62;49.48;99496.13;4347975;32;33898;-68
2022/05/25 09:32:10;;;;;;;5.10;4.07;;;;;;;26.25;46.90;99489.78;4361505;32;34112;-66
2022/05/25 09:35:00;;;;;;;5.18;3.80;;;;;;;26.52;46.08;99485.28;4361494;32;34309;-68
2022/05/25 09:37:50;;;;;;;7.90;3.92;;;;;;;26.39;48.57;99490.13;4361478;32;34358;-67
2022/05/25 09:40:34;;;;;;;6.00;3.72;;;;;;;26.72;46.24;99486.12;4349149;32;34526;-69
2022/05/25 09:43:04;;;;;;;6.80;4.22;;;;;;;26.75;46.93;99499.31;4361283;32;35020;-68
2022/05/25 09:45:41;;;;;;;6.22;4.78;;;;;;;26.72;47.24;99491.69;4362218;32;32812;-67
2022/05/25 09:48:22;;;;;;;5.78;4.05;;;;;;;26.32;48.71;99495.50;4361592;32;34029;-67
2022/05/25 09:50:52;;;;;;;6.25;4.30;;;;;;;26.69;46.79;99488.81;4359995;32;33715;-67
2022/05/25 09:53:22;;;;;;;5.47;4.20;;;;;;;26.92;46.28;99488.94;4359838;32;34064;-67
2022/05/25 09:55:52;;;;;;;5.12;3.78;;;;;;;27.04;45.84;99490.75;4347003;32;33472;-67
2022/05/25 09:58:43;;;;;;;5.97;4.00;;;;;;;27.27;45.43;99491.66;4360686;32;33108;-68
2022/05/25 10:01:43;;;;;;;6.20;4.55;;;;;;;26.80;48.66;99487.91;4347074;32;33999;-68
2022/05/25 10:04:17;;;;;;;5.85;4.35;;;;;;;27.18;46.95;99491.88;4327595;32;35629;-68
2022/05/25 10:06:52;;;;;;;6.70;4.18;;;;;;;27.58;45.20;99499.03;4346922;32;34233;-67
2022/05/25 10:09:24;;;;;;;7.07;4.85;;;;;;;27.45;45.43;99492.03;4359461;32;33272;-68
2022/05/25 10:11:55;;;;;;;5.32;4.03;;;;;;;27.70;45.06;99492.47;4359868;32;33816;-69
2022/05/25 10:14:32;;;;;;;6.35;4.62;;;;;;;27.70;45.03;99491.69;4359910;32;35225;-67
2022/05/25 10:17:09;;;;;;;7.12;4.35;;;;;;;27.89;43.92;99488.06;4341142;32;34743;-67
2022/05/25 10:19:49;;;;;;;6.37;4.40;;;;;;;27.69;44.58;99485.31;4345211;32;33602;-68
2022/05/25 10:22:30;;;;;;;10.02;4.75;;;;;;;27.64;44.92;99485.59;4359913;32;34140;-69
2022/05/25 10:25:04;;;;;;;5.78;4.32;;;;;;;27.59;44.67;99483.13;4359134;32;34175;-69
2022/05/25 10:27:38;;;;;;;6.78;5.20;;;;;;;27.86;45.51;99484.00;4359488;32;34177;-68
2022/05/25 10:36:52;;;;;;;5.55;4.10;;;;;;;27.83;46.56;99474.38;4360200;32;35719;-68
2022/05/25 10:39:29;;;;;;;6.32;4.15;;;;;;;27.48;48.47;99479.34;4331104;32;34571;-68
2022/05/25 10:42:02;;;;;;;6.22;3.92;;;;;;;28.11;45.66;99478.06;4360289;32;34457;-68
2022/05/25 10:44:47;;;;;;;6.35;4.72;;;;;;;28.35;44.32;99483.22;4359647;32;35071;-69
2022/05/25 10:47:31;;;;;;;6.65;4.15;;;;;;;28.31;41.21;99487.16;4358244;32;34253;-66
2022/05/25 10:50:00;;;;;;;5.90;4.12;;;;;;;27.87;44.00;99482.84;4360667;32;34847;-68
2022/05/25 10:52:37;;;;;;;6.22;4.30;;;;;;;27.61;44.34;99487.16;4346641;32;33401;-67
2022/05/25 10:55:05;;;;;;;5.70;4.57;;;;;;;27.38;46.25;99480.72;4342277;32;159840;-67
2022/05/25 10:57:46;;;;;;;5.95;4.72;;;;;;;27.71;46.04;99487.69;4360597;32;34207;-68
2022/05/25 11:00:24;;;;;;;5.62;3.92;;;;;;;26.86;47.53;99482.84;4361159;32;34086;-68
2022/05/25 11:03:31;;;;;;;6.70;4.32;;;;;;;27.60;45.48;99481.94;4347117;32;34419;-68
2022/05/25 11:06:21;;;;;;;6.00;4.37;;;;;;;27.62;45.54;99480.41;4360802;32;33900;-69
2022/05/25 11:08:57;;;;;;;7.80;4.57;;;;;;;27.36;45.78;99488.66;4360675;32;34289;-68
2022/05/25 11:11:33;;;;;;;5.25;4.03;;;;;;;27.44;46.04;99487.62;4348093;32;34786;-67
2022/05/25 11:14:13;;;;;;;5.50;4.30;;;;;;;26.72;47.32;99483.34;4361046;32;33543;-67
2022/05/25 11:17:05;;;;;;;7.35;4.55;;;;;;;27.42;46.05;99484.41;4361332;32;33767;-67
2022/05/25 11:19:58;;;;;;;7.28;4.30;;;;;;;27.62;46.65;99493.53;4352156;32;34096;-67
2022/05/25 11:22:31;;;;;;;4.75;4.00;;;;;;;28.39;44.25;99500.81;4361395;32;34871;-67
2022/05/25 11:25:16;;;;;;;6.07;4.70;;;;;;;28.60;41.47;99491.22;4349430;32;33948;-67
2022/05/25 11:28:23;;;;;;;4.47;3.72;;;;;;;28.53;43.18;99500.28;4362661;32;33786;-69
2022/05/25 11:31:16;;;;;;;5.32;3.85;;;;;;;28.78;41.22;99495.03;4348119;32;35008;-68
2022/05/25 11:33:52;;;;;;;4.85;3.58;;;;;;;28.56;40.58;99496.72;4360046;32;34006;-67
2022/05/25 11:36:46;;;;;;;4.75;3.45;;;;;;;28.32;41.96;99497.94;4362617;32;33254;-67
2022/05/25 11:39:32;;;;;;;6.32;4.32;;;;;;;28.37;41.45;99492.03;4362316;32;33958;-70
2022/05/25 11:42:17;;;;;;;5.50;3.80;;;;;;;27.99;44.65;99491.03;4362215;32;34393;-70
2022/05/25 11:44:50;;;;;;;5.15;3.97;;;;;;;27.73;42.59;99482.56;4348763;32;34064;-67
2022/05/25 11:47:46;;;;;;;5.62;4.10;;;;;;;28.44;41.52;99485.75;4362331;32;33290;-70
2022/05/25 11:50:20;;;;;;;5.15;3.97;;;;;;;28.40;42.86;99485.72;4357453;32;33911;-70
2022/05/25 11:53:00;;;;;;;;;;;;;;;27.76;43.33;99491.00;4348183;32;34176;-72
2022/05/25 11:55:38;;;;;;;4.72;3.60;;;;;;;27.74;43.93;99493.34;4361932;32;34539;-68
2022/05/25 11:58:44;;;;;;;5.95;4.32;;;;;;;28.11;43.20;99492.81;4361960;32;33638;-68
2022/05/25 12:01:27;;;;;;;5.15;3.78;;;;;;;28.16;42.91;99498.06;4362095;32;34391;-69
2022/05/25 12:04:04;;;;;;;4.90;3.60;;;;;;;27.88;44.87;99495.59;4361444;32;35084;-66
2022/05/25 12:06:43;;;;;;;4.35;3.40;;;;;;;27.23;45.14;99495.56;4361438;32;33914;-68
2022/05/25 12:09:27;;;;;;;4.87;3.75;;;;;;;27.71;46.04;99491.31;4362120;32;34654;-69
2022/05/25 12:12:18;;;;;;;4.68;3.87;;;;;;;28.35;43.36;99501.97;4348700;32;34502;-69
2022/05/25 12:14:54;;;;;;;5.90;3.75;;;;;;;27.97;45.57;99498.16;4360435;32;33866;-68
2022/05/25 12:17:40;;;;;;;4.82;3.78;;;;;;;28.37;44.34;99502.38;4348605;32;35117;-68
2022/05/25 12:20:09;;;;;;;5.78;3.58;;;;;;;28.83;43.41;99513.44;4361357;32;33919;-71
2022/05/25 12:22:37;;;;;;;5.37;3.90;;;;;;;28.02;44.49;99518.16;4347629;32;33980;-68
2022/05/25 12:25:08;;;;;;;5.22;4.28;;;;;;;28.09;44.46;99508.31;4361437;32;35054;-70
2022/05/25 12:27:43;;;;;;;6.22;4.20;;;;;;;27.16;46.06;99507.34;4348277;32;34069;-70
2022/05/25 12:30:14;;;;;;;7.50;3.78;;;;;;;26.73;47.14;99517.53;4348082;32;34564;-70